Time;durP1;ratioP1;P1;durP2;ratioP2;P2;SDS_P1;SDS_P2;PMS_P1;PMS_P2;Temp;Humidity;BMP_temperature;BMP_pressure;BME280_temperature;BME280_humidity;BME280_pressure;Samples;Min_cycle;Max_cycle;Signal;HPM_P1;HPM_P2
2022/12/10 00:01:22;;;;;;;13.20;4.60;;;;;;;12.94;59.33;101756.88;4972739;28;20105;-50
2022/12/10 00:03:48;;;;;;;9.63;3.67;;;;;;;12.90;60.40;101758.28;4977475;28;20026;-51
2022/12/10 00:06:20;;;;;;;8.45;4.28;;;;;;;12.94;60.59;101752.34;4989694;28;20023;-51
2022/12/10 00:08:47;;;;;;;7.75;3.47;;;;;;;12.99;60.60;101753.56;4985039;28;20154;-49
2022/12/10 00:11:15;;;;;;;8.25;3.53;;;;;;;12.77;62.08;101760.91;4986865;28;20015;-51
2022/12/10 00:13:44;;;;;;;10.07;3.85;;;;;;;12.62;62.80;101761.03;4972798;28;20027;-50
2022/12/10 00:16:13;;;;;;;8.88;4.60;;;;;;;12.52;62.83;101757.84;4983095;28;20113;-51
2022/12/10 00:18:39;;;;;;;6.82;3.60;;;;;;;12.57;62.68;101755.41;4972892;28;20039;-50
2022/12/10 00:21:08;;;;;;;6.18;3.15;;;;;;;12.46;62.48;101743.38;4973307;28;20122;-49
2022/12/10 00:23:35;;;;;;;9.00;3.08;;;;;;;11.94;63.97;101749.97;4972889;28;20109;-49
2022/12/10 00:26:15;;;;;;;8.52;2.72;;;;;;;11.93;63.61;101747.47;4985821;28;20052;-51
2022/12/10 00:28:42;;;;;;;13.57;2.38;;;;;;;11.66;64.57;101751.72;4992562;28;20030;-47
2022/12/10 00:31:15;;;;;;;8.25;3.15;;;;;;;11.79;64.27;101739.28;4991699;28;20014;-49
2022/12/10 00:33:43;;;;;;;6.53;2.70;;;;;;;11.62;64.97;101732.50;4992136;28;20073;-48
2022/12/10 00:36:18;;;;;;;6.30;2.97;;;;;;;11.53;65.57;101733.66;4992139;28;20439;-50
2022/12/10 00:38:45;;;;;;;8.60;2.88;;;;;;;11.26;66.10;101728.00;4992275;28;20097;-48
2022/12/10 00:41:12;;;;;;;8.82;3.47;;;;;;;11.53;65.49;101722.94;4994757;28;20545;-50
2022/12/10 00:43:40;;;;;;;8.63;4.10;;;;;;;11.63;65.24;101718.09;4995886;28;20034;-46
2022/12/10 00:46:06;;;;;;;9.32;3.90;;;;;;;11.63;65.51;101716.22;4995429;28;20097;-50
2022/12/10 00:48:33;;;;;;;6.78;3.35;;;;;;;11.61;65.59;101714.78;4995950;28;20033;-50
2022/12/10 00:51:04;;;;;;;5.65;3.30;;;;;;;11.77;65.59;101711.84;4995458;28;20018;-48
2022/12/10 00:53:33;;;;;;;8.02;3.58;;;;;;;11.59;65.98;101711.44;4995869;28;20034;-50
2022/12/10 00:56:00;;;;;;;12.38;3.38;;;;;;;11.45;66.41;101709.66;4995501;28;20029;-47
2022/12/10 00:58:31;;;;;;;8.27;3.35;;;;;;;11.57;66.68;101706.28;4995414;28;20105;-50
2022/12/10 01:01:17;;;;;;;8.85;3.17;;;;;;;11.46;66.92;101697.91;4995222;28;20030;-50
2022/12/10 01:03:44;;;;;;;7.30;3.20;;;;;;;11.32;67.44;101697.75;4995538;28;20470;-49
2022/12/10 01:06:14;;;;;;;5.57;3.28;;;;;;;11.42;67.64;101696.63;4995165;28;20109;-48
2022/12/10 01:08:41;;;;;;;8.05;2.97;;;;;;;11.35;67.90;101692.03;4995333;28;20116;-50
2022/12/10 01:11:08;;;;;;;8.05;3.35;;;;;;;11.22;68.10;101672.31;4978411;28;20026;-48
2022/12/10 01:13:35;;;;;;;5.22;2.80;;;;;;;11.21;68.29;101681.34;4989507;28;20054;-47
2022/12/10 01:16:06;;;;;;;7.45;3.75;;;;;;;11.33;68.44;101671.81;4995182;28;20105;-49
2022/12/10 01:18:33;;;;;;;8.13;3.85;;;;;;;11.41;68.38;101689.59;4980255;28;20078;-49
2022/12/10 01:21:04;;;;;;;9.57;3.60;;;;;;;11.52;67.97;101692.59;4976700;28;20038;-50
2022/12/10 01:23:36;;;;;;;11.88;3.35;;;;;;;11.31;68.77;101688.06;4986127;28;20030;-48
2022/12/10 01:26:05;;;;;;;8.95;4.03;;;;;;;11.20;69.45;101685.03;4975802;28;20030;-51
2022/12/10 01:28:34;;;;;;;6.45;3.40;;;;;;;11.44;68.99;101675.81;4989776;28;20037;-51
2022/12/10 01:31:09;;;;;;;13.57;4.55;;;;;;;11.25;69.09;101680.78;4994480;28;20026;-48
2022/12/10 01:33:36;;;;;;;8.50;3.72;;;;;;;11.26;68.84;101686.97;4994777;28;20161;-49
2022/12/10 01:36:08;;;;;;;12.35;4.55;;;;;;;11.16;69.17;101687.28;4976897;28;20038;-47
2022/12/10 01:38:35;;;;;;;9.90;4.60;;;;;;;11.01;69.57;101678.44;4975243;28;20023;-51
2022/12/10 01:41:01;;;;;;;16.58;4.90;;;;;;;10.90;70.14;101669.06;4992168;28;20113;-49
2022/12/10 01:43:48;;;;;;;7.18;3.72;;;;;;;10.88;70.24;101662.22;4994597;28;20023;-47
2022/12/10 01:46:14;;;;;;;8.93;4.55;;;;;;;10.84;70.68;101651.88;4994527;28;20050;-47
2022/12/10 01:48:40;;;;;;;8.73;4.40;;;;;;;10.95;70.52;101652.41;4994191;28;20022;-50
2022/12/10 01:51:07;;;;;;;9.25;4.95;;;;;;;10.87;70.32;101648.00;4974748;28;20030;-47
2022/12/10 01:53:34;;;;;;;8.90;4.22;;;;;;;10.88;70.51;101646.97;4974889;28;20107;-47
2022/12/10 01:56:00;;;;;;;8.63;4.30;;;;;;;10.87;70.94;101655.19;4975252;28;20025;-50
2022/12/10 01:58:26;;;;;;;11.23;4.28;;;;;;;10.96;70.53;101646.88;4975397;28;20050;-51
2022/12/10 02:01:07;;;;;;;10.55;4.38;;;;;;;11.23;69.90;101639.94;4977992;28;20468;-49
2022/12/10 02:04:01;;;;;;;9.18;4.50;;;;;;;11.25;69.82;101634.38;4984429;28;20042;-51
2022/12/10 02:06:42;;;;;;;9.30;4.35;;;;;;;11.34;69.42;101644.81;4982851;28;20463;-50
2022/12/10 02:09:26;;;;;;;8.88;4.78;;;;;;;10.97;70.53;101642.34;4988073;28;20029;-50
2022/12/10 02:12:29;;;;;;;9.00;4.25;;;;;;;10.96;70.97;101632.66;4982126;28;20414;-48
2022/12/10 02:15:01;;;;;;;8.82;4.07;;;;;;;10.70;71.55;101627.81;4994454;28;20057;-50
2022/12/10 02:18:13;;;;;;;10.43;4.40;;;;;;;10.90;71.38;101630.72;4993899;28;20038;-49
2022/12/10 02:20:54;;;;;;;8.20;4.63;;;;;;;10.75;72.03;101631.56;4993290;28;20049;-49
2022/12/10 02:23:32;;;;;;;9.60;3.92;;;;;;;11.11;70.54;101625.41;4974312;28;20026;-49
2022/12/10 02:26:22;;;;;;;13.77;3.50;;;;;;;11.25;69.70;101619.13;4975356;28;20023;-49
2022/12/10 02:29:24;;;;;;;8.00;3.60;;;;;;;10.70;71.61;101633.97;4974362;28;20101;-50
2022/12/10 02:32:05;;;;;;;11.20;4.18;;;;;;;10.92;71.18;101632.19;4974118;28;20027;-51
2022/12/10 02:34:36;;;;;;;10.23;5.03;;;;;;;10.80;71.42;101625.66;4974608;28;20484;-48
2022/12/10 02:37:07;;;;;;;8.95;4.60;;;;;;;11.12;70.72;101621.69;4974375;28;20033;-52
2022/12/10 02:39:39;;;;;;;9.23;4.63;;;;;;;11.04;70.83;101624.47;4982206;28;20105;-51
2022/12/10 02:42:08;;;;;;;13.23;4.82;;;;;;;10.94;71.47;101634.66;4979755;28;20038;-50
2022/12/10 02:44:38;;;;;;;9.32;5.00;;;;;;;10.80;72.01;101628.34;4974242;28;20515;-50
2022/12/10 02:47:06;;;;;;;8.18;5.38;;;;;;;10.81;72.28;101630.81;4973978;28;20056;-51
2022/12/10 02:49:34;;;;;;;9.95;5.45;;;;;;;10.67;72.92;101631.69;4974131;28;20399;-49
2022/12/10 02:52:10;;;;;;;12.55;5.88;;;;;;;10.68;72.72;101630.69;4973955;28;20038;-51
2022/12/10 02:54:42;;;;;;;12.60;5.88;;;;;;;10.54;73.07;101632.34;4974200;28;20022;-49
2022/12/10 02:57:56;;;;;;;10.57;6.05;;;;;;;10.27;74.54;101641.03;4974239;28;20019;-52
2022/12/10 03:00:24;;;;;;;12.40;5.72;;;;;;;10.23;74.83;101632.56;4940115;28;20246;-51
2022/12/10 03:02:56;;;;;;;11.48;5.15;;;;;;;10.55;73.66;101617.97;4992855;28;20077;-51
2022/12/10 03:05:54;;;;;;;13.52;5.80;;;;;;;10.50;73.53;101623.03;4992952;28;20026;-53
2022/12/10 03:08:41;;;;;;;11.32;5.30;;;;;;;10.46;73.61;101628.94;4993246;28;20089;-51
2022/12/10 03:11:15;;;;;;;13.35;5.30;;;;;;;10.45;73.81;101624.63;4991085;28;20481;-49
2022/12/10 03:14:19;;;;;;;7.97;4.45;;;;;;;10.42;73.66;101616.94;4984358;28;20023;-49
2022/12/10 03:17:00;;;;;;;9.52;4.78;;;;;;;10.50;73.66;101611.50;4973726;28;20173;-51
2022/12/10 03:19:40;;;;;;;6.60;4.63;;;;;;;10.54;72.69;101612.78;4991772;28;20378;-51
2022/12/10 03:22:08;;;;;;;8.02;4.22;;;;;;;10.52;72.44;101612.16;4985692;28;20078;-52
2022/12/10 03:24:36;;;;;;;7.95;3.72;;;;;;;10.60;72.28;101609.34;4973337;28;20022;-48
2022/12/10 03:27:05;;;;;;;8.82;3.42;;;;;;;10.66;72.26;101613.13;4973409;28;20031;-52
2022/12/10 03:29:44;;;;;;;9.00;3.92;;;;;;;10.71;72.07;101602.69;4973336;28;20057;-50
2022/12/10 03:32:11;;;;;;;6.65;3.38;;;;;;;10.81;71.12;101614.75;4973172;28;20026;-47
2022/12/10 03:34:38;;;;;;;7.22;3.28;;;;;;;10.71;71.55;101614.22;4977288;28;20038;-53
2022/12/10 03:37:06;;;;;;;8.48;3.00;;;;;;;10.78;71.31;101617.81;4973640;28;20029;-51
2022/12/10 03:39:33;;;;;;;4.68;3.08;;;;;;;10.84;70.95;101602.84;4973548;28;20118;-49
2022/12/10 03:41:59;;;;;;;6.20;3.25;;;;;;;11.03;70.00;101604.06;4973587;28;20109;-50
2022/12/10 03:44:34;;;;;;;10.07;3.15;;;;;;;10.96;70.21;101614.72;4972653;28;20409;-51
2022/12/10 03:47:01;;;;;;;8.32;2.90;;;;;;;11.04;70.00;101603.88;4973147;28;20042;-48
2022/12/10 03:49:27;;;;;;;5.45;2.70;;;;;;;11.29;68.71;101609.69;4973182;28;20402;-50
2022/12/10 03:51:53;;;;;;;8.68;3.40;;;;;;;11.12;68.90;101594.91;4973195;28;20023;-50
2022/12/10 03:54:20;;;;;;;7.03;3.10;;;;;;;10.98;69.18;101598.47;4972995;28;20019;-47
2022/12/10 03:56:46;;;;;;;4.65;2.83;;;;;;;11.00;69.25;101597.25;4973230;28;20102;-51
2022/12/10 03:59:13;;;;;;;6.32;2.80;;;;;;;11.00;69.44;101607.16;4973029;28;20027;-50
2022/12/10 04:01:41;;;;;;;7.05;2.65;;;;;;;11.04;69.60;101600.38;4972860;28;20081;-51
2022/12/10 04:04:07;;;;;;;5.95;2.53;;;;;;;11.06;69.59;101595.66;4973132;28;20031;-51
2022/12/10 04:06:34;;;;;;;5.20;3.40;;;;;;;11.03;69.50;101594.19;4973218;28;20065;-49
2022/12/10 04:09:00;;;;;;;5.63;3.15;;;;;;;11.04;69.42;101600.38;4972765;28;20027;-53
2022/12/10 04:11:27;;;;;;;6.43;3.50;;;;;;;11.05;69.33;101594.00;4972639;28;20523;-50
2022/12/10 04:16:38;;;;;;;9.55;3.60;;;;;;;11.03;69.29;101602.22;4976807;28;20078;-52
2022/12/10 04:19:11;;;;;;;9.15;3.80;;;;;;;11.03;69.33;101606.75;4976896;28;20113;-49
2022/12/10 04:27:13;;;;;;;8.57;4.65;;;;;;;11.14;70.21;101603.56;4976945;28;20544;-50
2022/12/10 04:29:39;;;;;;;9.38;4.43;;;;;;;11.03;70.55;101601.41;4976612;28;20122;-51
2022/12/10 04:32:06;;;;;;;10.65;4.97;;;;;;;11.02;70.87;101589.84;4976617;28;20202;-52
2022/12/10 04:34:33;;;;;;;13.23;4.93;;;;;;;11.01;70.95;101592.72;4976413;28;20519;-49
2022/12/10 04:37:00;;;;;;;10.77;4.88;;;;;;;10.96;71.09;101587.09;4976754;28;20031;-50
2022/12/10 04:39:26;;;;;;;9.70;4.28;;;;;;;11.04;71.36;101587.81;4976415;28;20130;-52
2022/12/10 04:41:52;;;;;;;8.73;4.25;;;;;;;11.10;71.31;101589.75;4975911;28;20027;-52
2022/12/10 04:44:19;;;;;;;9.98;4.50;;;;;;;11.01;71.56;101592.72;5037712;23;20060;-49
2022/12/10 04:46:46;;;;;;;8.48;3.95;;;;;;;10.97;71.70;101600.31;5035055;28;20030;-50
2022/12/10 04:49:12;;;;;;;6.60;3.65;;;;;;;10.98;71.60;101598.47;5035099;28;20026;-55
2022/12/10 04:51:39;;;;;;;7.40;3.80;;;;;;;10.99;71.51;101594.75;5035004;28;20466;-51
2022/12/10 04:54:05;;;;;;;9.98;5.30;;;;;;;11.11;71.30;101601.28;5035002;28;20029;-49
2022/12/10 04:56:32;;;;;;;8.88;4.68;;;;;;;11.05;71.14;101594.84;5034734;28;20025;-49
2022/12/10 04:58:59;;;;;;;9.35;4.50;;;;;;;10.99;71.48;101589.41;5035083;28;20061;-48
2022/12/10 05:01:27;;;;;;;8.52;4.07;;;;;;;11.05;71.36;101583.31;5034508;28;20028;-48
2022/12/10 05:03:54;;;;;;;8.65;4.03;;;;;;;11.00;71.17;101583.03;5035012;28;20037;-51
2022/12/10 05:06:21;;;;;;;6.20;3.35;;;;;;;11.03;70.73;101590.69;5034696;28;20030;-50
2022/12/10 05:08:47;;;;;;;9.43;3.78;;;;;;;11.01;70.42;101590.06;5034728;28;20030;-48
2022/12/10 05:11:16;;;;;;;6.80;3.40;;;;;;;11.04;70.49;101578.94;5034207;28;20459;-48
2022/12/10 05:13:43;;;;;;;7.75;3.95;;;;;;;11.07;70.49;101574.03;5034528;28;20053;-52
2022/12/10 05:16:11;;;;;;;7.45;3.55;;;;;;;11.12;70.36;101568.09;5034525;28;20091;-50
2022/12/10 05:18:37;;;;;;;7.88;3.22;;;;;;;11.15;70.21;101556.16;5034596;28;20029;-47
2022/12/10 05:21:07;;;;;;;6.88;2.85;;;;;;;11.17;70.00;101554.16;5034195;28;20125;-51
2022/12/10 05:23:37;;;;;;;6.30;2.60;;;;;;;11.09;70.36;101557.75;5034484;28;20041;-47
2022/12/10 05:26:12;;;;;;;7.40;2.95;;;;;;;11.09;70.50;101558.59;5033342;28;20668;-50
2022/12/10 05:28:48;;;;;;;9.10;2.88;;;;;;;11.15;70.48;101556.16;5034380;28;20028;-51
2022/12/10 05:31:23;;;;;;;8.95;3.08;;;;;;;11.16;70.34;101545.28;5033924;28;20025;-51
2022/12/10 05:33:50;;;;;;;12.80;3.85;;;;;;;11.14;70.42;101538.44;5034279;28;20025;-50
2022/12/10 05:36:19;;;;;;;12.45;4.20;;;;;;;11.29;69.84;101531.16;5034163;28;20362;-51
2022/12/10 05:38:46;;;;;;;8.82;4.40;;;;;;;11.21;70.24;101529.44;5034061;28;20029;-51
2022/12/10 05:41:16;;;;;;;10.15;4.38;;;;;;;11.26;69.95;101529.69;5034116;28;20029;-51
2022/12/10 05:43:44;;;;;;;8.73;3.42;;;;;;;11.16;70.17;101521.16;5016435;28;20038;-52
2022/12/10 05:46:22;;;;;;;11.23;3.60;;;;;;;11.14;70.40;101525.03;5033974;28;20084;-50
2022/12/10 05:48:49;;;;;;;6.80;3.35;;;;;;;11.24;70.38;101528.22;5033995;28;20072;-50
2022/12/10 05:51:19;;;;;;;9.30;3.55;;;;;;;11.36;69.75;101522.13;5033491;28;20075;-49
2022/12/10 05:53:45;;;;;;;6.55;3.08;;;;;;;11.22;70.75;101523.06;5033233;28;20366;-51
2022/12/10 05:56:15;;;;;;;14.82;3.47;;;;;;;11.22;70.50;101533.78;5032486;28;20029;-47
2022/12/10 05:58:43;;;;;;;8.60;3.38;;;;;;;11.14;70.57;101533.09;5033344;28;20098;-47
2022/12/10 06:01:13;;;;;;;5.30;2.78;;;;;;;11.17;70.75;101522.81;5033018;28;20398;-52
2022/12/10 06:03:39;;;;;;;10.88;3.13;;;;;;;11.13;70.97;101516.19;5033543;28;20078;-52
2022/12/10 06:06:06;;;;;;;7.50;2.92;;;;;;;11.20;70.65;101508.19;5032619;28;20025;-49
2022/12/10 06:08:34;;;;;;;10.60;3.55;;;;;;;11.28;70.63;101491.97;5032945;28;20104;-51
2022/12/10 06:11:08;;;;;;;12.20;4.38;;;;;;;11.32;70.61;101493.22;5031731;28;20114;-48
2022/12/10 06:13:35;;;;;;;15.40;3.73;;;;;;;11.32;70.43;101487.88;5032457;28;20034;-48
2022/12/10 06:16:10;;;;;;;8.23;4.05;;;;;;;11.36;70.48;101478.44;5032001;28;20033;-51
2022/12/10 06:18:37;;;;;;;11.48;3.88;;;;;;;11.24;70.54;101470.09;5032656;28;20100;-53
2022/12/10 06:21:08;;;;;;;13.48;5.03;;;;;;;11.22;70.87;101482.03;5032725;28;20079;-49
2022/12/10 06:23:36;;;;;;;13.82;5.18;;;;;;;11.22;70.65;101488.22;5033021;28;20109;-51
2022/12/10 06:26:25;;;;;;;15.45;4.97;;;;;;;11.28;70.40;101468.69;5032684;28;20079;-51
2022/12/10 06:28:52;;;;;;;9.18;3.58;;;;;;;11.12;70.65;101471.66;5033436;28;20040;-52
2022/12/10 06:31:18;;;;;;;7.78;3.55;;;;;;;11.25;69.91;101466.38;5032995;28;20490;-51
2022/12/10 06:33:45;;;;;;;6.93;3.53;;;;;;;11.15;69.84;101462.38;5032495;28;20112;-47
2022/12/10 06:36:14;;;;;;;7.90;3.63;;;;;;;11.18;69.39;101459.34;5033002;28;20416;-49
2022/12/10 06:38:41;;;;;;;7.18;3.75;;;;;;;11.01;70.04;101450.75;5032122;28;20021;-50
2022/12/10 06:41:09;;;;;;;10.20;3.63;;;;;;;11.04;69.92;101453.03;5032380;28;20034;-51
2022/12/10 06:43:36;;;;;;;7.25;3.55;;;;;;;11.12;69.41;101455.59;5032730;28;20049;-48
2022/12/10 06:46:10;;;;;;;8.20;3.90;;;;;;;11.06;69.82;101459.03;5032450;28;20029;-52
2022/12/10 06:48:37;;;;;;;14.60;4.10;;;;;;;11.10;69.44;101463.81;5032755;28;20378;-51
2022/12/10 06:51:04;;;;;;;10.15;4.32;;;;;;;11.02;69.34;101465.81;5032317;28;20033;-47
2022/12/10 06:53:31;;;;;;;9.48;3.95;;;;;;;11.00;69.86;101454.47;5032950;28;20106;-52
2022/12/10 06:56:00;;;;;;;7.20;3.65;;;;;;;10.98;69.95;101454.63;5032655;28;20469;-51
2022/12/10 06:58:30;;;;;;;9.77;3.67;;;;;;;10.90;70.27;101462.81;5032253;28;20054;-48
2022/12/10 07:01:07;;;;;;;7.65;3.22;;;;;;;10.83;70.94;101462.75;5032356;28;20021;-52
2022/12/10 07:03:34;;;;;;;11.70;4.10;;;;;;;10.94;70.88;101457.88;5032763;28;20059;-49
2022/12/10 07:06:02;;;;;;;8.43;2.53;;;;;;;10.91;71.43;101444.91;5031956;28;20052;-50
2022/12/10 07:08:28;;;;;;;4.95;1.70;;;;;;;10.94;72.25;101436.47;5032227;28;20053;-50
2022/12/10 07:10:55;;;;;;;4.43;1.38;;;;;;;10.98;72.39;101441.25;5032012;28;20435;-49
2022/12/10 07:13:22;;;;;;;3.03;0.90;;;;;;;10.95;72.47;101438.13;5032322;28;20509;-52
2022/12/10 07:15:48;;;;;;;2.85;0.90;;;;;;;10.78;73.16;101433.06;5032172;28;20037;-48
2022/12/10 07:18:14;;;;;;;1.33;0.63;;;;;;;10.82;73.19;101428.94;5032035;28;20065;-49
2022/12/10 07:20:41;;;;;;;2.42;0.80;;;;;;;10.71;73.38;101417.94;5032276;28;20021;-51
2022/12/10 07:23:07;;;;;;;4.35;1.00;;;;;;;10.72;73.32;101417.75;5032264;28;20021;-52
2022/12/10 07:25:34;;;;;;;2.83;0.80;;;;;;;10.58;72.65;101416.81;5032222;28;20048;-51
2022/12/10 07:28:00;;;;;;;1.38;0.65;;;;;;;10.70;71.22;101409.06;5032007;28;20033;-52
2022/12/10 07:30:26;;;;;;;2.85;1.15;;;;;;;10.60;70.52;101397.88;5032190;28;20032;-49
2022/12/10 07:32:52;;;;;;;2.60;0.82;;;;;;;10.71;69.92;101396.53;5031685;28;20037;-52
2022/12/10 07:35:19;;;;;;;1.73;0.80;;;;;;;10.62;69.49;101381.63;5032396;28;20470;-48
2022/12/10 07:37:45;;;;;;;4.60;1.08;;;;;;;10.58;70.17;101383.84;5032169;28;20116;-51
2022/12/10 07:40:11;;;;;;;4.28;0.95;;;;;;;10.73;70.36;101376.56;5031921;28;20430;-51
2022/12/10 07:42:37;;;;;;;2.75;1.45;;;;;;;10.72;70.74;101376.78;5031846;28;20073;-51
2022/12/10 07:45:04;;;;;;;3.88;1.25;;;;;;;10.66;71.14;101373.03;5032057;28;20026;-48
2022/12/10 07:47:30;;;;;;;5.60;1.65;;;;;;;10.73;72.17;101365.03;5031768;28;20426;-52
2022/12/10 07:49:56;;;;;;;5.03;1.77;;;;;;;10.67;73.60;101358.63;5031230;28;20067;-52
2022/12/10 07:52:23;;;;;;;5.22;1.90;;;;;;;10.64;74.05;101356.31;5031664;28;20036;-51
2022/12/10 07:54:49;;;;;;;4.50;1.77;;;;;;;10.54;73.47;101345.09;5031977;28;20120;-51
2022/12/10 07:57:15;;;;;;;8.50;2.50;;;;;;;10.49;73.41;101335.00;5031722;28;20116;-51
2022/12/10 07:59:41;;;;;;;7.50;2.60;;;;;;;10.45;72.31;101323.03;5031718;28;20032;-51
2022/12/10 08:02:09;;;;;;;5.75;1.98;;;;;;;10.45;71.87;101322.19;5031580;28;20091;-48
2022/12/10 08:04:37;;;;;;;5.60;2.47;;;;;;;10.55;70.45;101322.69;5032043;28;20044;-51
2022/12/10 08:07:03;;;;;;;8.18;2.40;;;;;;;10.57;69.69;101315.28;5031673;28;20022;-51
2022/12/10 08:09:29;;;;;;;4.80;2.00;;;;;;;10.53;69.15;101314.00;5031862;28;20413;-49
2022/12/10 08:11:56;;;;;;;5.95;2.40;;;;;;;10.46;69.43;101307.78;5031632;28;20025;-51
2022/12/10 08:14:22;;;;;;;3.50;2.10;;;;;;;10.49;68.67;101302.03;5031633;28;20056;-51
2022/12/10 08:16:48;;;;;;;5.32;2.42;;;;;;;10.44;68.50;101301.81;5031320;28;20057;-52
2022/12/10 08:19:14;;;;;;;5.07;2.00;;;;;;;10.39;68.71;101298.88;5031867;28;20028;-51
2022/12/10 08:21:42;;;;;;;5.30;2.10;;;;;;;10.39;68.60;101302.38;5031599;28;20033;-51
2022/12/10 08:24:08;;;;;;;4.75;1.83;;;;;;;10.49;68.33;101297.53;5031911;28;20037;-51
2022/12/10 08:26:35;;;;;;;6.90;1.98;;;;;;;10.50;67.71;101291.16;5031818;28;20032;-52
2022/12/10 08:29:01;;;;;;;4.85;1.80;;;;;;;10.43;68.21;101294.78;5031586;28;20056;-49
2022/12/10 08:31:28;;;;;;;5.75;1.52;;;;;;;10.48;67.51;101290.50;5031691;28;20036;-51
2022/12/10 08:33:55;;;;;;;4.10;1.00;;;;;;;10.54;66.89;101296.91;5031583;28;20029;-51
2022/12/10 08:36:21;;;;;;;4.40;0.95;;;;;;;10.48;66.86;101290.50;5031475;28;20512;-51
2022/12/10 08:38:47;;;;;;;3.00;0.82;;;;;;;10.55;66.94;101298.59;5031438;28;20029;-51
2022/12/10 08:41:20;;;;;;;2.53;0.85;;;;;;;10.46;67.09;101289.06;5031107;28;20045;-52
2022/12/10 08:43:48;;;;;;;6.47;1.00;;;;;;;10.56;67.02;101297.56;5031015;28;20104;-52
2022/12/10 08:46:15;;;;;;;2.90;0.90;;;;;;;10.60;66.65;101287.28;5038154;22;20041;-51
2022/12/10 08:48:42;;;;;;;3.05;0.90;;;;;;;10.68;66.70;101298.69;5030354;28;20116;-52
2022/12/10 08:51:13;;;;;;;3.58;0.98;;;;;;;10.70;66.51;101283.25;5031046;28;20096;-52
2022/12/10 08:53:39;;;;;;;2.47;0.82;;;;;;;10.55;67.24;101283.38;5031332;28;20025;-48
2022/12/10 08:56:06;;;;;;;2.78;0.90;;;;;;;10.60;66.86;101281.94;5031677;28;20056;-51
2022/12/10 08:58:32;;;;;;;6.78;1.15;;;;;;;10.63;66.82;101273.53;5031454;28;20022;-51
2022/12/10 09:00:59;;;;;;;2.08;0.50;;;;;;;10.62;66.94;101269.19;5031131;28;20021;-51
2022/12/10 09:03:25;;;;;;;1.98;0.60;;;;;;;10.75;66.72;101256.72;5034394;28;20021;-48
2022/12/10 09:05:51;;;;;;;2.28;0.60;;;;;;;10.65;66.92;101250.88;5034920;28;20448;-52
2022/12/10 09:08:18;;;;;;;4.80;1.30;;;;;;;10.60;67.52;101250.63;5034717;28;20473;-50
2022/12/10 09:10:44;;;;;;;2.38;0.68;;;;;;;10.68;67.37;101245.13;5034287;28;20033;-52
2022/12/10 09:13:10;;;;;;;2.55;0.75;;;;;;;10.82;67.15;101238.81;5034790;28;20072;-51
2022/12/10 09:15:36;;;;;;;6.18;0.80;;;;;;;10.71;67.29;101242.06;5034588;28;20028;-48
2022/12/10 09:18:03;;;;;;;3.80;1.10;;;;;;;10.71;67.61;101231.34;5034328;28;20127;-52
2022/12/10 09:20:29;;;;;;;1.25;0.55;;;;;;;10.76;67.95;101234.25;5034366;28;20030;-50
2022/12/10 09:22:55;;;;;;;2.92;0.80;;;;;;;10.83;67.84;101221.75;5034529;28;20033;-52
2022/12/10 09:25:21;;;;;;;2.75;0.60;;;;;;;10.92;67.31;101218.91;5034267;28;20130;-51
2022/12/10 09:27:48;;;;;;;4.20;0.50;;;;;;;10.93;67.34;101207.16;5034382;28;20117;-50
2022/12/10 09:30:15;;;;;;;3.22;0.73;;;;;;;10.94;67.22;101209.66;5033770;28;20481;-50
2022/12/10 09:32:41;;;;;;;1.58;0.90;;;;;;;10.84;68.11;101196.63;5034133;28;20390;-51
2022/12/10 09:35:08;;;;;;;3.40;0.70;;;;;;;10.84;67.88;101196.63;5034213;28;20053;-48
2022/12/10 09:37:34;;;;;;;2.70;0.70;;;;;;;10.94;67.94;101211.47;5034154;28;20108;-51
2022/12/10 09:40:01;;;;;;;1.42;0.60;;;;;;;10.97;67.62;101203.88;5033873;28;20026;-48
2022/12/10 09:42:39;;;;;;;2.08;0.57;;;;;;;10.95;67.55;101197.91;5034222;28;20022;-49
2022/12/10 09:45:23;;;;;;;2.95;1.08;;;;;;;10.88;67.65;101201.56;5034019;28;20489;-51
2022/12/10 09:48:01;;;;;;;3.10;0.93;;;;;;;10.95;67.56;101199.75;4994979;28;20506;-51
2022/12/10 09:50:38;;;;;;;5.35;1.20;;;;;;;10.88;68.08;101190.84;4994288;28;20027;-49
2022/12/10 09:53:12;;;;;;;3.70;0.70;;;;;;;10.86;67.78;101192.91;4995126;28;20031;-49
2022/12/10 09:55:44;;;;;;;3.15;0.70;;;;;;;10.88;67.10;101191.69;4994621;28;20081;-51
2022/12/10 09:58:17;;;;;;;3.03;0.98;;;;;;;10.95;67.75;101189.06;4994707;28;20022;-50
2022/12/10 10:00:52;;;;;;;6.38;0.85;;;;;;;10.99;67.47;101185.78;4976515;28;20035;-48
2022/12/10 10:03:18;;;;;;;2.23;0.77;;;;;;;11.02;67.20;101171.97;4975180;28;20102;-51
2022/12/10 10:05:49;;;;;;;2.22;0.70;;;;;;;11.02;67.06;101176.50;4974876;28;20117;-47
2022/12/10 10:08:15;;;;;;;2.00;0.63;;;;;;;10.86;67.42;101172.31;4975129;28;20026;-47
2022/12/10 10:10:42;;;;;;;2.28;0.63;;;;;;;11.03;67.49;101173.63;4974573;28;20062;-48
2022/12/10 10:13:08;;;;;;;2.40;0.50;;;;;;;10.97;67.71;101173.59;4974363;28;20399;-50
2022/12/10 10:15:37;;;;;;;5.70;0.70;;;;;;;11.07;67.83;101172.19;4974704;28;20395;-51
2022/12/10 10:18:15;;;;;;;1.17;0.60;;;;;;;11.12;67.47;101176.13;4974640;28;20502;-49
2022/12/10 10:20:41;;;;;;;1.85;0.95;;;;;;;11.07;68.15;101180.22;4974671;28;20062;-52
2022/12/10 10:23:12;;;;;;;3.38;0.70;;;;;;;11.19;67.36;101175.09;4974484;28;20132;-48
2022/12/10 10:25:38;;;;;;;1.90;0.55;;;;;;;11.08;67.99;101160.44;4974517;28;20027;-47
2022/12/10 10:28:05;;;;;;;4.68;0.68;;;;;;;11.12;68.36;101178.81;4974441;28;20498;-51
2022/12/10 10:30:31;;;;;;;0.90;0.45;;;;;;;11.22;68.49;101177.41;4971243;28;20030;-50
2022/12/10 10:33:03;;;;;;;5.53;0.82;;;;;;;11.16;69.26;101161.28;4963564;28;20035;-49
2022/12/10 10:35:42;;;;;;;3.15;0.98;;;;;;;11.19;69.47;101156.34;4974646;28;20102;-49
2022/12/10 10:38:18;;;;;;;4.55;0.68;;;;;;;11.08;69.67;101140.88;4974787;28;20023;-47
2022/12/10 10:40:46;;;;;;;2.80;0.80;;;;;;;11.19;70.06;101148.31;4974256;28;20033;-48
2022/12/10 10:43:47;;;;;;;1.13;0.55;;;;;;;11.14;70.89;101142.75;4974220;28;20042;-47
2022/12/10 10:46:22;;;;;;;4.93;0.77;;;;;;;11.12;71.42;101141.31;4996639;23;20127;-47
2022/12/10 10:48:48;;;;;;;3.65;0.73;;;;;;;10.98;71.98;101143.09;5013261;28;20069;-51
2022/12/10 10:51:18;;;;;;;2.30;0.80;;;;;;;11.01;72.59;101161.47;5012697;28;20037;-48
2022/12/10 10:53:49;;;;;;;1.60;0.75;;;;;;;11.04;73.25;101150.31;5013179;28;20034;-47
2022/12/10 10:56:22;;;;;;;2.55;0.73;;;;;;;11.11;73.67;101156.56;5013228;28;20029;-48
2022/12/10 10:59:06;;;;;;;2.03;0.70;;;;;;;11.06;73.88;101157.16;5012448;28;20535;-47
2022/12/10 11:01:47;;;;;;;1.65;0.63;;;;;;;11.00;74.07;101152.59;5012518;28;20385;-47
2022/12/10 11:04:21;;;;;;;2.90;0.57;;;;;;;10.94;74.31;101157.91;5013111;28;20536;-47
2022/12/10 11:06:52;;;;;;;3.50;0.77;;;;;;;10.98;74.20;101141.25;5012776;28;20080;-49
2022/12/10 11:09:24;;;;;;;0.70;0.50;;;;;;;11.01;74.04;101132.81;5012413;28;20026;-49
2022/12/10 11:11:58;;;;;;;1.63;0.60;;;;;;;11.05;74.20;101138.63;5012725;28;20037;-47
2022/12/10 11:14:32;;;;;;;4.10;1.25;;;;;;;11.04;73.69;101127.03;5012514;28;20080;-47
2022/12/10 11:17:23;;;;;;;1.02;0.70;;;;;;;11.06;73.03;101122.34;4995478;28;20030;-47
2022/12/10 11:20:18;;;;;;;1.98;0.45;;;;;;;10.91;74.10;101118.16;5012109;28;20036;-48
2022/12/10 11:22:54;;;;;;;2.70;0.50;;;;;;;10.90;74.41;101113.84;5012839;28;20038;-48
2022/12/10 11:25:43;;;;;;;1.80;0.50;;;;;;;10.92;74.86;101099.19;5012471;28;20100;-47
2022/12/10 11:28:51;;;;;;;3.00;0.65;;;;;;;11.04;74.91;101080.69;5013138;28;20038;-47
2022/12/10 11:31:42;;;;;;;3.10;0.50;;;;;;;10.97;75.85;101074.50;5012110;28;20030;-47
2022/12/10 11:34:34;;;;;;;0.98;0.57;;;;;;;10.89;76.71;101072.84;5012781;28;20030;-48
2022/12/10 11:37:26;;;;;;;3.22;0.63;;;;;;;10.97;76.70;101069.97;5012481;28;20463;-47
2022/12/10 11:40:19;;;;;;;1.98;0.40;;;;;;;10.97;76.71;101042.34;5012213;28;20409;-49
2022/12/10 11:43:03;;;;;;;1.23;0.68;;;;;;;10.80;77.32;101031.19;5012250;28;20068;-47
2022/12/10 11:45:54;;;;;;;3.42;0.60;;;;;;;11.01;76.44;101030.22;5012107;28;20478;-52
2022/12/10 11:48:51;;;;;;;3.17;0.45;;;;;;;10.99;75.76;101021.53;5012150;28;20037;-50
2022/12/10 11:51:34;;;;;;;1.88;0.50;;;;;;;10.97;76.21;101019.06;5011948;28;20091;-48